createdAt,value
2022-12-15T00:02:28.105Z,2.10
2022-12-15T00:05:14.134Z,2.10
2022-12-15T00:08:00.068Z,2.00
2022-12-15T00:10:46.281Z,2.00
2022-12-15T00:13:32.881Z,2.00
2022-12-15T00:16:19.394Z,2.00
2022-12-15T00:19:05.173Z,2.00
2022-12-15T00:21:51.221Z,1.90
2022-12-15T00:24:37.342Z,1.90
2022-12-15T00:27:23.598Z,1.90
2022-12-15T00:30:09.396Z,1.90
2022-12-15T00:32:55.146Z,1.80
2022-12-15T00:35:40.985Z,1.80
2022-12-15T00:38:31.755Z,1.70
2022-12-15T00:41:00.311Z,1.70
2022-12-15T00:43:29.286Z,1.60
2022-12-15T00:46:15.486Z,1.60
2022-12-15T00:48:43.065Z,1.60
2022-12-15T00:51:10.441Z,1.70
2022-12-15T00:53:56.527Z,1.70
2022-12-15T00:56:42.819Z,1.70
2022-12-15T00:59:28.623Z,1.70
2022-12-15T01:02:14.928Z,1.70
2022-12-15T01:05:00.701Z,1.70
2022-12-15T01:07:49.947Z,1.80
2022-12-15T01:10:37.465Z,1.80
2022-12-15T01:13:23.771Z,1.80
2022-12-15T01:16:09.675Z,1.80
2022-12-15T01:18:55.667Z,1.70
2022-12-15T01:21:25.001Z,1.70
2022-12-15T01:23:53.155Z,1.70
2022-12-15T01:26:20.573Z,1.70
2022-12-15T01:28:47.907Z,1.70
2022-12-15T01:31:15.271Z,1.60
2022-12-15T01:33:43.747Z,1.60
2022-12-15T01:36:11.270Z,1.60
2022-12-15T01:38:38.651Z,1.60
2022-12-15T01:41:08.010Z,1.60
2022-12-15T01:43:36.733Z,1.60
2022-12-15T01:46:04.143Z,1.60
2022-12-15T01:48:46.721Z,1.70
2022-12-15T01:51:35.532Z,1.70
2022-12-15T01:54:11.651Z,1.60
2022-12-15T01:56:44.838Z,1.60
2022-12-15T01:59:15.169Z,1.60
2022-12-15T02:01:42.588Z,1.60
2022-12-15T02:04:10.869Z,1.60
2022-12-15T02:06:38.199Z,1.50
2022-12-15T02:09:05.664Z,1.50
2022-12-15T02:11:32.944Z,1.50
2022-12-15T02:14:01.789Z,1.50
2022-12-15T02:16:52.539Z,1.50
2022-12-15T02:19:38.504Z,1.40
2022-12-15T02:22:27.381Z,1.40
2022-12-15T02:25:08.205Z,1.40
2022-12-15T02:28:03.478Z,1.40
2022-12-15T02:30:43.053Z,1.40
2022-12-15T02:33:14.974Z,1.50
2022-12-15T02:36:00.518Z,1.40
2022-12-15T02:38:38.434Z,1.40
2022-12-15T02:41:06.448Z,1.40
2022-12-15T02:43:35.632Z,1.40
2022-12-15T02:46:22.286Z,1.40
2022-12-15T02:49:15.520Z,1.50
2022-12-15T02:51:58.487Z,1.50
2022-12-15T02:54:48.610Z,1.50
2022-12-15T02:57:25.378Z,1.50
2022-12-15T03:00:07.667Z,1.50
2022-12-15T03:02:35.130Z,1.50
2022-12-15T03:05:02.607Z,1.40
2022-12-15T03:07:29.941Z,1.30
2022-12-15T03:09:58.869Z,1.30
2022-12-15T03:12:26.238Z,1.30
2022-12-15T03:14:53.567Z,1.30
2022-12-15T03:17:20.863Z,1.30
2022-12-15T03:19:49.670Z,1.30
2022-12-15T03:22:17.682Z,1.20
2022-12-15T03:24:44.978Z,1.20
2022-12-15T03:27:12.295Z,1.20
2022-12-15T03:29:39.717Z,1.20
2022-12-15T03:32:07.099Z,1.20
2022-12-15T03:34:34.470Z,1.20
2022-12-15T03:37:01.748Z,1.20
2022-12-15T03:39:29.110Z,1.20
2022-12-15T03:41:56.405Z,1.20
2022-12-15T03:44:23.736Z,1.10
2022-12-15T03:46:51.047Z,1.10
2022-12-15T03:49:18.373Z,1.10
2022-12-15T03:51:45.660Z,1.10
2022-12-15T03:54:13.987Z,1.10
2022-12-15T03:56:41.292Z,1.10
2022-12-15T03:59:08.602Z,1.10
2022-12-15T04:01:36.484Z,1.10
2022-12-15T04:04:04.219Z,1.10
2022-12-15T04:06:31.725Z,1.00
2022-12-15T04:08:59.102Z,1.00
2022-12-15T04:11:26.541Z,1.00
2022-12-15T04:13:56.476Z,0.90
2022-12-15T04:16:23.812Z,0.90
2022-12-15T04:19:11.094Z,0.90
2022-12-15T04:21:38.413Z,0.90
2022-12-15T04:24:24.639Z,0.90
2022-12-15T04:27:10.416Z,0.90
2022-12-15T04:29:56.234Z,0.90
2022-12-15T04:32:42.130Z,0.90
2022-12-15T04:35:28.976Z,0.90
2022-12-15T04:38:14.621Z,0.90
2022-12-15T04:41:00.371Z,0.90
2022-12-15T04:43:45.995Z,0.80
2022-12-15T04:46:31.749Z,0.80
2022-12-15T04:49:17.562Z,0.80
2022-12-15T04:52:03.350Z,0.80
2022-12-15T04:54:49.512Z,0.80
2022-12-15T04:57:35.414Z,0.80
2022-12-15T05:00:21.728Z,0.90
2022-12-15T05:03:07.536Z,0.90
2022-12-15T05:05:53.454Z,0.90
2022-12-15T05:08:39.418Z,1.00
2022-12-15T05:11:25.153Z,1.00
2022-12-15T05:14:10.962Z,1.00
2022-12-15T05:16:56.977Z,1.10
2022-12-15T05:19:42.910Z,1.00
2022-12-15T05:22:28.665Z,1.00
2022-12-15T05:25:14.572Z,0.90
2022-12-15T05:28:00.284Z,0.90
2022-12-15T05:30:46.136Z,0.80
2022-12-15T05:33:13.457Z,0.90
2022-12-15T05:35:40.845Z,0.90
2022-12-15T05:38:08.164Z,0.90
2022-12-15T05:40:35.502Z,0.90
2022-12-15T05:43:02.832Z,0.90
2022-12-15T05:45:30.117Z,1.00
2022-12-15T05:47:57.423Z,1.00
2022-12-15T05:50:24.804Z,1.00
2022-12-15T05:52:52.201Z,1.00
2022-12-15T05:55:19.975Z,1.00
2022-12-15T05:57:53.855Z,1.00
2022-12-15T06:00:21.598Z,1.00
2022-12-15T06:02:49.865Z,1.00
2022-12-15T06:05:17.745Z,1.00
2022-12-15T06:07:45.091Z,1.00
2022-12-15T06:10:12.927Z,1.00
2022-12-15T06:12:40.205Z,1.00
2022-12-15T06:15:08.003Z,1.00
2022-12-15T06:17:35.297Z,1.00
2022-12-15T06:20:02.822Z,1.00
2022-12-15T06:22:31.273Z,1.00
2022-12-15T06:24:58.600Z,1.00
2022-12-15T06:27:25.916Z,1.00
2022-12-15T06:29:53.359Z,0.90
2022-12-15T06:32:21.338Z,0.90
2022-12-15T06:34:49.551Z,0.90
2022-12-15T06:37:16.847Z,0.90
2022-12-15T06:39:44.190Z,0.90
2022-12-15T06:42:11.540Z,0.90
2022-12-15T06:44:38.840Z,1.00
2022-12-15T06:47:07.425Z,1.00
2022-12-15T06:49:34.759Z,1.00
2022-12-15T06:52:02.092Z,1.00
2022-12-15T06:54:29.482Z,1.00
2022-12-15T06:56:56.761Z,1.00
2022-12-15T06:59:24.051Z,1.00
2022-12-15T07:01:51.481Z,1.00
2022-12-15T07:04:18.963Z,1.00
2022-12-15T07:06:46.337Z,1.00
2022-12-15T07:09:16.038Z,1.00
2022-12-15T07:11:43.921Z,1.00
2022-12-15T07:14:11.241Z,1.00
2022-12-15T07:16:39.046Z,1.00
2022-12-15T07:19:06.488Z,1.00
2022-12-15T07:21:33.834Z,1.00
2022-12-15T07:24:02.149Z,1.00
2022-12-15T07:26:30.539Z,1.00
2022-12-15T07:28:57.865Z,1.00
2022-12-15T07:31:25.339Z,1.00
2022-12-15T07:33:54.420Z,1.00
2022-12-15T07:36:22.063Z,1.00
2022-12-15T07:38:50.083Z,1.00
2022-12-15T07:41:18.925Z,1.10
2022-12-15T07:43:47.622Z,1.10
2022-12-15T07:46:15.710Z,1.10
2022-12-15T07:48:43.148Z,1.10
2022-12-15T07:51:17.372Z,1.10
2022-12-15T07:53:47.541Z,1.10
2022-12-15T07:56:15.481Z,1.10
2022-12-15T07:58:42.965Z,1.20
2022-12-15T08:01:12.396Z,1.20
2022-12-15T08:03:40.806Z,1.20
2022-12-15T08:06:10.280Z,1.30
2022-12-15T08:08:37.955Z,1.30
2022-12-15T08:11:09.670Z,1.40
2022-12-15T08:16:24.757Z,1.50
2022-12-15T08:18:52.113Z,1.50
2022-12-15T08:21:19.516Z,1.50
2022-12-15T08:23:46.895Z,1.50
2022-12-15T08:26:15.982Z,1.50
2022-12-15T08:28:43.430Z,1.50
2022-12-15T08:31:18.340Z,1.50
2022-12-15T08:33:46.022Z,1.50
2022-12-15T08:36:14.376Z,1.50
2022-12-15T08:38:42.237Z,1.50
2022-12-15T08:41:17.527Z,1.60
2022-12-15T08:43:48.600Z,1.60
2022-12-15T08:46:17.772Z,1.60
2022-12-15T08:48:45.230Z,1.60
2022-12-15T08:51:12.660Z,1.70
2022-12-15T08:53:40.002Z,1.80
2022-12-15T08:56:09.618Z,1.90
2022-12-15T08:58:36.972Z,1.90
2022-12-15T09:01:06.357Z,2.00
2022-12-15T09:03:35.974Z,2.00
2022-12-15T09:06:04.778Z,2.10
2022-12-15T09:08:32.365Z,2.20
2022-12-15T09:10:59.765Z,2.20
2022-12-15T09:13:27.246Z,2.20
2022-12-15T09:16:13.997Z,2.10
2022-12-15T09:18:46.623Z,2.20
2022-12-15T09:21:14.161Z,2.10
2022-12-15T09:23:41.580Z,2.20
2022-12-15T09:26:10.847Z,2.20
2022-12-15T09:28:38.459Z,2.30
2022-12-15T09:31:16.769Z,2.30
2022-12-15T09:33:44.365Z,2.30
2022-12-15T09:36:13.194Z,2.40
2022-12-15T09:38:41.372Z,2.50
2022-12-15T09:41:15.428Z,2.50
2022-12-15T09:43:52.320Z,2.50
2022-12-15T09:46:28.349Z,2.50
2022-12-15T09:48:56.007Z,2.60
2022-12-15T09:51:29.753Z,2.70
2022-12-15T09:53:57.430Z,2.80
2022-12-15T09:56:31.251Z,2.80
2022-12-15T09:59:20.923Z,2.80
2022-12-15T10:02:10.174Z,2.90
2022-12-15T10:05:07.242Z,2.90
2022-12-15T10:07:39.634Z,3.00
2022-12-15T10:10:17.865Z,3.00
2022-12-15T10:12:57.676Z,3.10
2022-12-15T10:15:29.839Z,3.10
2022-12-15T10:18:04.810Z,3.20
2022-12-15T10:20:32.167Z,3.30
2022-12-15T10:23:03.097Z,3.30
2022-12-15T10:25:31.260Z,3.30
2022-12-15T10:28:07.835Z,3.30
2022-12-15T10:30:35.363Z,3.40
2022-12-15T10:33:22.999Z,3.40
2022-12-15T10:35:52.626Z,3.40
2022-12-15T10:38:32.055Z,3.30
2022-12-15T10:41:01.770Z,3.20
2022-12-15T10:43:43.793Z,3.30
2022-12-15T10:46:21.927Z,3.20
2022-12-15T10:48:54.552Z,3.30
2022-12-15T10:51:21.978Z,3.20
2022-12-15T10:54:09.735Z,3.20
2022-12-15T10:57:00.159Z,3.30
2022-12-15T10:59:38.453Z,3.30
2022-12-15T11:02:24.266Z,3.30
2022-12-15T11:05:05.732Z,3.30
2022-12-15T11:07:40.897Z,3.40
2022-12-15T11:10:23.420Z,3.40
2022-12-15T11:13:12.196Z,3.50
2022-12-15T11:15:50.772Z,3.40
2022-12-15T11:18:32.670Z,3.40
2022-12-15T11:21:12.091Z,3.30
2022-12-15T11:23:50.864Z,3.30
2022-12-15T11:26:45.514Z,3.30
2022-12-15T11:29:18.907Z,3.30
2022-12-15T11:31:48.652Z,3.30
2022-12-15T11:34:18.530Z,3.20
2022-12-15T11:37:10.777Z,3.30
2022-12-15T11:40:15.479Z,3.30
2022-12-15T11:43:18.482Z,3.30
2022-12-15T11:45:48.795Z,3.30
2022-12-15T11:48:18.073Z,3.40
2022-12-15T11:51:00.366Z,3.40
2022-12-15T11:53:34.837Z,3.40
2022-12-15T11:56:16.174Z,3.30
2022-12-15T11:58:56.440Z,3.30
2022-12-15T12:01:49.450Z,3.20
2022-12-15T12:04:30.982Z,3.20
2022-12-15T12:07:04.159Z,3.20
2022-12-15T12:09:55.552Z,3.20
2022-12-15T12:12:28.572Z,3.20
2022-12-15T12:14:58.712Z,3.10
2022-12-15T12:17:52.842Z,3.10
2022-12-15T12:20:22.387Z,3.20
2022-12-15T12:23:02.426Z,3.10
2022-12-15T12:25:29.751Z,3.10
2022-12-15T12:28:13.398Z,3.00
2022-12-15T12:30:45.979Z,3.00
2022-12-15T12:33:25.482Z,3.00
2022-12-15T12:36:16.318Z,2.90
2022-12-15T12:41:38.501Z,3.00
2022-12-15T12:44:32.433Z,3.00
2022-12-15T12:47:06.369Z,2.90
2022-12-15T12:49:45.872Z,2.90
2022-12-15T12:52:24.433Z,2.80
2022-12-15T12:55:20.967Z,2.70
2022-12-15T12:57:50.085Z,2.70
2022-12-15T13:00:28.494Z,2.70
2022-12-15T13:02:57.182Z,2.80
2022-12-15T13:05:33.992Z,2.80
2022-12-15T13:08:06.758Z,2.80
2022-12-15T13:10:34.944Z,2.90
2022-12-15T13:13:30.235Z,2.90
2022-12-15T13:16:11.539Z,2.70
2022-12-15T13:19:04.613Z,2.60
2022-12-15T13:21:44.346Z,2.60
2022-12-15T13:24:30.770Z,2.50
2022-12-15T13:27:15.198Z,2.50
2022-12-15T13:30:01.374Z,2.50
2022-12-15T13:32:35.612Z,2.50
2022-12-15T13:35:16.769Z,2.50
2022-12-15T13:37:53.019Z,2.40
2022-12-15T13:40:23.513Z,2.40
2022-12-15T13:43:19.695Z,2.40
2022-12-15T13:45:50.989Z,2.40
2022-12-15T13:48:36.390Z,2.30
2022-12-15T13:51:06.417Z,2.20
2022-12-15T13:53:42.520Z,2.10
2022-12-15T13:56:12.868Z,2.00
2022-12-15T13:58:43.812Z,2.00
2022-12-15T14:01:42.260Z,2.00
2022-12-15T14:04:15.690Z,2.00
2022-12-15T14:06:57.144Z,1.90
2022-12-15T14:09:28.463Z,2.00
2022-12-15T14:11:55.795Z,2.00
2022-12-15T14:14:25.686Z,2.00
2022-12-15T14:17:03.336Z,2.00
2022-12-15T14:19:38.888Z,2.00
2022-12-15T14:22:29.449Z,2.00
2022-12-15T14:25:09.266Z,2.00
2022-12-15T14:27:36.645Z,2.00
2022-12-15T14:30:29.806Z,2.00
2022-12-15T14:33:03.372Z,2.00
2022-12-15T14:35:31.727Z,2.00
2022-12-15T14:38:00.640Z,2.00
2022-12-15T14:40:29.068Z,2.00
2022-12-15T14:42:56.706Z,2.00
2022-12-15T14:45:26.044Z,2.00
2022-12-15T14:48:30.584Z,1.90
2022-12-15T14:50:46.254Z,1.90
2022-12-15T14:53:17.827Z,1.80
2022-12-15T14:55:45.139Z,1.80
2022-12-15T14:58:35.197Z,1.80
2022-12-15T15:01:03.387Z,1.70
2022-12-15T15:03:12.826Z,3.00
2022-12-15T15:03:40.938Z,1.70
2022-12-15T15:06:11.352Z,1.70
2022-12-15T15:08:52.637Z,1.70
2022-12-15T15:11:35.478Z,1.70
2022-12-15T15:14:10.469Z,1.70
2022-12-15T15:16:37.848Z,1.70
2022-12-15T15:19:05.505Z,1.60
2022-12-15T15:21:36.598Z,1.60
2022-12-15T15:24:25.453Z,1.70
2022-12-15T15:26:53.309Z,1.70
2022-12-15T15:29:40.993Z,1.70
2022-12-15T15:32:16.701Z,1.70
2022-12-15T15:34:45.070Z,1.70
2022-12-15T15:37:18.560Z,1.70
2022-12-15T15:39:48.182Z,1.70
2022-12-15T15:42:15.526Z,1.70
2022-12-15T15:44:42.927Z,1.70
2022-12-15T15:47:25.079Z,1.70
2022-12-15T15:49:53.439Z,1.70
2022-12-15T15:52:21.974Z,1.70
2022-12-15T15:54:49.405Z,1.70
2022-12-15T15:57:17.256Z,1.70
2022-12-15T15:59:45.278Z,1.70
2022-12-15T16:02:13.819Z,1.70
2022-12-15T16:04:44.538Z,1.60
2022-12-15T16:07:25.618Z,1.60
2022-12-15T16:09:53.462Z,1.70
2022-12-15T16:12:25.254Z,1.60
2022-12-15T16:14:52.554Z,1.60
2022-12-15T16:17:20.091Z,1.60
2022-12-15T16:19:47.502Z,1.60
2022-12-15T16:22:19.544Z,1.70
2022-12-15T16:24:47.035Z,1.70
2022-12-15T16:27:14.789Z,1.70
2022-12-15T16:29:42.364Z,1.70
2022-12-15T16:32:10.665Z,1.70
2022-12-15T16:34:38.232Z,1.70
2022-12-15T16:37:05.671Z,1.70
2022-12-15T16:39:34.066Z,1.60
2022-12-15T16:42:01.611Z,1.60
2022-12-15T16:44:29.464Z,1.60
2022-12-15T16:46:57.489Z,1.60
2022-12-15T16:49:25.171Z,1.60
2022-12-15T16:51:53.527Z,1.60
2022-12-15T16:54:23.674Z,1.60
2022-12-15T16:56:52.922Z,1.50
2022-12-15T16:59:37.349Z,1.50
2022-12-15T17:02:31.586Z,1.50
2022-12-15T17:04:59.084Z,1.40
2022-12-15T17:07:26.953Z,1.50
2022-12-15T17:09:54.296Z,1.50
2022-12-15T17:12:21.599Z,1.50
2022-12-15T17:14:48.922Z,1.50
2022-12-15T17:17:17.537Z,1.50
2022-12-15T17:20:11.702Z,1.50
2022-12-15T17:22:33.268Z,1.50
2022-12-15T17:25:00.709Z,1.50
2022-12-15T17:27:28.497Z,1.50
2022-12-15T17:29:56.335Z,1.50
2022-12-15T17:32:23.641Z,1.40
2022-12-15T17:34:51.065Z,1.40
2022-12-15T17:37:18.867Z,1.40
2022-12-15T17:39:51.131Z,1.50
2022-12-15T17:42:19.712Z,1.40
2022-12-15T17:44:47.885Z,1.40
2022-12-15T17:47:15.504Z,1.40
2022-12-15T17:49:42.984Z,1.40
2022-12-15T17:52:24.923Z,1.40
2022-12-15T17:54:52.292Z,1.40
2022-12-15T17:57:20.029Z,1.40
2022-12-15T17:59:47.709Z,1.40
2022-12-15T18:02:15.597Z,1.40
2022-12-15T18:04:43.429Z,1.30
2022-12-15T18:07:18.181Z,1.30
2022-12-15T18:09:45.621Z,1.30
2022-12-15T18:12:21.577Z,1.30
2022-12-15T18:14:49.166Z,1.30
2022-12-15T18:17:16.608Z,1.30
2022-12-15T18:19:43.894Z,1.30
2022-12-15T18:22:23.941Z,1.30
2022-12-15T18:24:52.081Z,1.30
2022-12-15T18:27:24.591Z,1.40
2022-12-15T18:29:52.069Z,1.30
2022-12-15T18:32:20.409Z,1.30
2022-12-15T18:34:47.733Z,1.40
2022-12-15T18:37:19.409Z,1.30
2022-12-15T18:39:46.913Z,1.30
2022-12-15T18:42:19.182Z,1.30
2022-12-15T18:44:50.690Z,1.40
2022-12-15T18:47:19.385Z,1.40
2022-12-15T18:49:46.781Z,1.40
2022-12-15T18:52:24.161Z,1.40
2022-12-15T18:54:52.613Z,1.40
2022-12-15T18:57:32.865Z,1.40
2022-12-15T19:00:13.508Z,1.40
2022-12-15T19:02:41.543Z,1.40
2022-12-15T19:05:27.663Z,1.40
2022-12-15T19:08:04.221Z,1.50
2022-12-15T19:10:33.262Z,1.40
2022-12-15T19:13:00.847Z,1.50
2022-12-15T19:15:28.279Z,1.50
2022-12-15T19:18:14.125Z,1.50
2022-12-15T19:20:59.795Z,1.60
2022-12-15T19:23:27.178Z,1.60
2022-12-15T19:25:54.538Z,1.60
2022-12-15T19:28:23.130Z,1.50
2022-12-15T19:30:50.935Z,1.60
2022-12-15T19:33:18.435Z,1.60
2022-12-15T19:35:47.593Z,1.60
2022-12-15T19:38:23.931Z,1.60
2022-12-15T19:40:53.422Z,1.60
2022-12-15T19:43:22.170Z,1.60
2022-12-15T19:45:49.942Z,1.60
2022-12-15T19:48:22.937Z,1.60
2022-12-15T19:50:52.104Z,1.70
2022-12-15T19:53:24.311Z,1.70
2022-12-15T19:55:55.922Z,1.70
2022-12-15T19:58:30.076Z,1.70
2022-12-15T20:00:58.178Z,1.70
2022-12-15T20:03:26.181Z,1.70
2022-12-15T20:05:54.130Z,1.70
2022-12-15T20:08:23.567Z,1.70
2022-12-15T20:10:51.145Z,1.70
2022-12-15T20:13:18.506Z,1.70
2022-12-15T20:15:45.936Z,1.80
2022-12-15T20:18:13.486Z,1.80
2022-12-15T20:20:41.642Z,1.80
2022-12-15T20:23:27.254Z,1.80
2022-12-15T20:25:55.873Z,1.80
2022-12-15T20:28:25.260Z,1.80
2022-12-15T20:30:52.805Z,1.80
2022-12-15T20:33:20.253Z,1.80
2022-12-15T20:35:48.193Z,1.80
2022-12-15T20:38:24.620Z,1.90
2022-12-15T20:40:52.639Z,1.80
2022-12-15T20:43:21.014Z,1.90
2022-12-15T20:45:53.277Z,1.90
2022-12-15T20:48:25.213Z,1.90
2022-12-15T20:50:53.342Z,1.90
2022-12-15T20:53:22.626Z,1.90
2022-12-15T20:55:50.664Z,1.90
2022-12-15T20:58:18.191Z,2.00
2022-12-15T21:00:45.854Z,2.00
2022-12-15T21:03:27.474Z,2.10
2022-12-15T21:05:56.579Z,2.10
2022-12-15T21:08:29.607Z,2.20
2022-12-15T21:11:18.358Z,2.20
2022-12-15T21:13:46.146Z,2.10
2022-12-15T21:16:21.350Z,2.20
2022-12-15T21:19:18.558Z,2.10
2022-12-15T21:21:43.956Z,2.20
2022-12-15T21:24:16.266Z,2.10
2022-12-15T21:26:43.637Z,2.20
2022-12-15T21:29:15.577Z,2.20
2022-12-15T21:31:43.024Z,2.20
2022-12-15T21:34:10.597Z,2.20
2022-12-15T21:36:38.695Z,2.20
2022-12-15T21:39:07.742Z,2.20
2022-12-15T21:41:35.347Z,2.20
2022-12-15T21:44:02.664Z,2.20
2022-12-15T21:46:30.048Z,2.20
2022-12-15T21:49:17.384Z,2.20
2022-12-15T21:51:56.277Z,2.20
2022-12-15T21:54:31.371Z,2.30
2022-12-15T21:56:59.848Z,2.30
2022-12-15T21:59:29.576Z,2.30
2022-12-15T22:01:57.107Z,2.40
2022-12-15T22:04:26.879Z,2.30
2022-12-15T22:06:54.210Z,2.40
2022-12-15T22:09:21.822Z,2.30
2022-12-15T22:11:50.148Z,2.40
2022-12-15T22:14:27.389Z,2.40
2022-12-15T22:16:54.877Z,2.40
2022-12-15T22:19:22.452Z,2.40
2022-12-15T22:21:49.970Z,2.50
2022-12-15T22:24:17.276Z,2.40
2022-12-15T22:26:44.594Z,2.40
2022-12-15T22:29:15.610Z,2.40
2022-12-15T22:31:43.071Z,2.40
2022-12-15T22:34:14.672Z,2.40
2022-12-15T22:36:42.304Z,2.50
2022-12-15T22:39:11.134Z,2.50
2022-12-15T22:41:45.702Z,2.50
2022-12-15T22:44:25.451Z,2.40
2022-12-15T22:46:53.989Z,2.40
2022-12-15T22:49:23.965Z,2.50
2022-12-15T22:51:51.367Z,2.50
2022-12-15T22:54:19.896Z,2.50
2022-12-15T22:57:06.822Z,2.60
2022-12-15T22:59:42.405Z,2.60
2022-12-15T23:02:09.839Z,2.60
2022-12-15T23:04:37.171Z,2.60
2022-12-15T23:07:05.580Z,2.60
2022-12-15T23:09:32.948Z,2.60
2022-12-15T23:12:00.342Z,2.60
2022-12-15T23:14:46.583Z,2.60
2022-12-15T23:17:13.958Z,2.60
2022-12-15T23:19:44.993Z,2.60
2022-12-15T23:22:12.638Z,2.60
2022-12-15T23:24:39.960Z,2.60
2022-12-15T23:27:10.323Z,2.70
2022-12-15T23:29:37.800Z,2.60
2022-12-15T23:32:06.033Z,2.60
2022-12-15T23:34:33.350Z,2.60
2022-12-15T23:37:00.881Z,2.60
2022-12-15T23:39:28.360Z,2.70
2022-12-15T23:41:55.673Z,2.70
2022-12-15T23:44:23.035Z,2.70
2022-12-15T23:46:50.449Z,2.70
2022-12-15T23:49:17.904Z,2.70
2022-12-15T23:51:45.243Z,2.70
2022-12-15T23:54:12.622Z,2.70
2022-12-15T23:56:40.467Z,2.70
2022-12-15T23:59:07.869Z,2.70
